Time;durP1;ratioP1;P1;durP2;ratioP2;P2;SDS_P1;SDS_P2;PMS_P1;PMS_P2;Temp;Humidity;BMP_temperature;BMP_pressure;BME280_temperature;BME280_humidity;BME280_pressure;Samples;Min_cycle;Max_cycle;Signal;HPM_P1;HPM_P2
2022/03/24 00:01:29;;;;;;;36.25;19.05;;;;;;;1.13;76.39;101457.59;5102443;28;20035;-80
2022/03/24 00:03:54;;;;;;;37.03;18.30;;;;;;;1.11;76.56;101462.38;5087129;28;20461;-81
2022/03/24 00:06:20;;;;;;;40.22;19.88;;;;;;;1.13;77.05;101457.59;5079533;28;20048;-82
2022/03/24 00:08:45;;;;;;;38.30;18.88;;;;;;;1.15;76.84;101450.13;5104559;28;20036;-81
2022/03/24 00:11:11;;;;;;;33.15;17.30;;;;;;;1.13;76.70;101457.59;5100247;28;20494;-81
2022/03/24 00:13:37;;;;;;;36.13;17.67;;;;;;;1.04;77.48;101447.97;5092981;28;20135;-81
2022/03/24 00:16:03;;;;;;;35.70;18.00;;;;;;;1.04;76.77;101445.28;5093908;28;20553;-81
2022/03/24 00:18:32;;;;;;;33.65;16.50;;;;;;;1.02;77.37;101441.94;5074178;28;20574;-81
2022/03/24 00:20:58;;;;;;;34.60;17.33;;;;;;;1.07;77.79;101436.78;5074921;28;20051;-81
2022/03/24 00:23:23;;;;;;;35.72;16.75;;;;;;;1.13;77.56;101426.00;5093772;28;20506;-82
2022/03/24 00:25:50;;;;;;;39.05;17.88;;;;;;;1.24;77.57;101424.63;5105529;28;20093;-81
2022/03/24 00:28:15;;;;;;;33.17;17.23;;;;;;;1.27;77.44;101420.69;5084309;28;20698;-82
2022/03/24 00:30:43;;;;;;;32.80;16.95;;;;;;;1.32;77.48;101412.78;5057443;28;20113;-82
2022/03/24 00:33:09;;;;;;;30.95;16.20;;;;;;;1.37;76.91;101421.13;5106556;28;20522;-82
2022/03/24 00:35:34;;;;;;;35.65;18.05;;;;;;;1.36;76.93;101424.88;5074245;28;20093;-80
2022/03/24 00:38:00;;;;;;;36.33;17.55;;;;;;;1.35;76.63;101424.03;5092846;28;20058;-81
2022/03/24 00:40:25;;;;;;;35.53;17.42;;;;;;;1.41;76.50;101415.13;5096653;28;20071;-80
2022/03/24 00:42:52;;;;;;;31.00;16.75;;;;;;;1.45;76.71;101408.28;5089055;28;20084;-80
2022/03/24 00:45:18;;;;;;;34.03;16.92;;;;;;;1.43;76.47;101413.06;5101248;28;20048;-81
2022/03/24 00:47:45;;;;;;;34.38;17.00;;;;;;;1.45;76.42;101405.56;5084367;28;20486;-81
2022/03/24 00:50:12;;;;;;;33.88;17.40;;;;;;;1.47;75.85;101400.78;5092176;28;20134;-82
2022/03/24 00:52:41;;;;;;;34.92;18.05;;;;;;;1.48;76.07;101407.03;5097498;28;20607;-82
2022/03/24 00:55:17;;;;;;;;;;;;;;;1.49;75.76;101406.00;5072200;28;20042;-81
2022/03/24 00:57:44;;;;;;;37.38;17.63;;;;;;;1.48;75.43;101401.63;5079257;28;20347;-82
2022/03/24 01:00:15;;;;;;;30.98;16.25;;;;;;;1.45;75.42;101399.31;5094175;28;20039;-82
2022/03/24 01:02:41;;;;;;;34.72;17.30;;;;;;;1.44;75.29;101392.25;5105086;28;20043;-82
2022/03/24 01:05:08;;;;;;;39.05;19.00;;;;;;;1.45;76.02;101392.03;5078365;28;20036;-81
2022/03/24 01:07:35;;;;;;;37.30;18.73;;;;;;;1.49;75.49;101396.00;5092679;28;20028;-82
2022/03/24 01:10:02;;;;;;;33.15;17.38;;;;;;;1.54;75.55;101394.56;5099418;28;20417;-82
2022/03/24 01:12:29;;;;;;;33.58;17.30;;;;;;;1.52;75.45;101392.88;5088856;28;20036;-81
2022/03/24 01:14:56;;;;;;;36.35;18.48;;;;;;;1.50;75.12;101386.03;5073608;28;20039;-80
2022/03/24 01:17:23;;;;;;;34.85;17.58;;;;;;;1.48;74.93;101385.41;5073583;28;20044;-80
2022/03/24 01:19:49;;;;;;;38.83;18.13;;;;;;;1.31;75.61;101371.41;5073802;28;20085;-80
2022/03/24 01:22:15;;;;;;;33.55;18.52;;;;;;;1.26;75.59;101383.88;5110044;28;20047;-80
2022/03/24 01:24:41;;;;;;;34.72;17.83;;;;;;;1.28;75.27;101379.91;5092586;28;20048;-80
2022/03/24 01:27:10;;;;;;;29.85;16.20;;;;;;;1.27;75.87;101390.94;5093432;28;20122;-80
2022/03/24 01:29:36;;;;;;;;;;;;;;;1.30;76.10;101387.81;5112414;28;20040;-80
2022/03/24 01:32:03;;;;;;;32.72;17.73;;;;;;;1.31;75.58;101384.09;5084711;28;19984;-80
2022/03/24 01:34:29;;;;;;;28.98;16.52;;;;;;;1.28;75.89;101385.31;5076764;28;20028;-80
2022/03/24 01:36:55;;;;;;;29.27;16.35;;;;;;;1.35;75.32;101386.16;5077728;28;20134;-80
2022/03/24 01:39:21;;;;;;;31.23;16.52;;;;;;;1.36;75.33;101390.53;5103964;28;20040;-81
2022/03/24 01:41:47;;;;;;;27.77;15.93;;;;;;;1.38;75.60;101391.16;5073187;28;20040;-81
2022/03/24 01:44:16;;;;;;;28.92;16.20;;;;;;;1.42;75.40;101387.06;5086710;28;20035;-81
2022/03/24 01:47:00;;;;;;;26.27;15.70;;;;;;;1.36;75.10;101382.44;5080435;27;20035;-81
2022/03/24 01:49:28;;;;;;;30.77;17.13;;;;;;;1.41;75.47;101379.97;5120105;28;20032;-81
2022/03/24 01:51:54;;;;;;;27.13;16.20;;;;;;;1.36;75.50;101382.44;5067938;28;20484;-81
2022/03/24 01:54:21;;;;;;;29.38;15.80;;;;;;;1.34;75.11;101384.50;5082287;28;20608;-81
2022/03/24 01:56:49;;;;;;;28.93;16.57;;;;;;;1.37;75.07;101381.38;5071627;28;20063;-80
2022/03/24 01:59:16;;;;;;;28.95;16.92;;;;;;;1.30;75.32;101388.66;5094575;28;20501;-80
2022/03/24 02:01:43;;;;;;;26.80;16.17;;;;;;;1.26;75.29;101387.41;5078420;28;20074;-81
2022/03/24 02:04:10;;;;;;;33.63;17.15;;;;;;;1.20;75.26;101386.31;5094983;28;20042;-81
2022/03/24 02:06:36;;;;;;;28.30;15.90;;;;;;;1.20;75.73;101382.78;5094990;28;20066;-80
2022/03/24 02:09:03;;;;;;;26.33;16.15;;;;;;;1.20;75.64;101380.91;5077336;28;20044;-80
2022/03/24 02:11:30;;;;;;;28.33;16.63;;;;;;;1.26;75.42;101387.41;5078537;28;20130;-80
2022/03/24 02:13:57;;;;;;;25.98;16.13;;;;;;;1.29;75.38;101391.56;5060706;28;20036;-82
2022/03/24 02:16:27;;;;;;;28.70;17.30;;;;;;;1.27;75.15;101375.56;5078890;28;20085;-81
2022/03/24 02:18:59;;;;;;;27.95;16.27;;;;;;;1.25;75.28;101385.72;5079336;28;20399;-81
2022/03/24 02:21:27;;;;;;;29.33;16.40;;;;;;;1.28;74.97;101374.50;5075495;28;20032;-81
2022/03/24 02:23:54;;;;;;;25.48;15.90;;;;;;;1.28;75.25;101368.28;5096583;28;20048;-81
2022/03/24 02:26:19;;;;;;;28.73;17.63;;;;;;;1.29;75.08;101373.47;5098493;28;20439;-81
2022/03/24 02:28:45;;;;;;;33.65;17.50;;;;;;;1.32;75.35;101381.19;5078911;28;20031;-81
2022/03/24 02:31:12;;;;;;;25.85;16.10;;;;;;;1.34;75.25;101373.69;5079110;28;20043;-80
2022/03/24 02:33:37;;;;;;;28.00;16.92;;;;;;;1.27;74.90;101366.59;5079023;28;20140;-81
2022/03/24 02:36:04;;;;;;;30.65;16.70;;;;;;;1.24;74.93;101367.84;5104359;28;20537;-80
2022/03/24 02:38:31;;;;;;;28.23;17.33;;;;;;;1.25;75.08;101365.97;5086108;28;20034;-80
2022/03/24 02:40:57;;;;;;;26.40;15.82;;;;;;;1.25;75.19;101372.22;5076975;28;20584;-80
2022/03/24 02:43:23;;;;;;;30.33;17.13;;;;;;;1.34;75.03;101373.69;5096025;28;20043;-81
2022/03/24 02:45:50;;;;;;;27.73;16.60;;;;;;;1.25;75.04;101372.22;5080054;28;20119;-81
2022/03/24 02:48:16;;;;;;;28.65;16.73;;;;;;;1.13;74.57;101376.53;5094970;28;20040;-80
2022/03/24 02:50:42;;;;;;;27.98;17.20;;;;;;;1.14;74.95;101370.06;5059368;28;20092;-80
2022/03/24 02:53:09;;;;;;;26.13;15.68;;;;;;;1.15;74.96;101366.34;5092184;28;20048;-81
2022/03/24 02:55:35;;;;;;;31.17;16.23;;;;;;;1.16;75.31;101355.31;5108812;28;20050;-81
2022/03/24 02:58:00;;;;;;;26.98;16.08;;;;;;;1.23;75.04;101362.66;5089977;28;20035;-82
2022/03/24 03:00:27;;;;;;;26.73;16.40;;;;;;;1.31;75.11;101363.28;5090815;28;20068;-81
2022/03/24 03:02:53;;;;;;;26.52;15.98;;;;;;;1.41;74.54;101355.63;5100883;28;20040;-81
2022/03/24 03:05:21;;;;;;;29.05;17.08;;;;;;;1.34;74.20;101359.34;5089027;28;20039;-81
2022/03/24 03:07:48;;;;;;;29.58;16.30;;;;;;;1.34;74.47;101357.47;5093329;28;20042;-82
2022/03/24 03:10:14;;;;;;;28.13;17.02;;;;;;;1.29;74.41;101354.56;5095783;28;20039;-81
2022/03/24 03:12:44;;;;;;;28.38;15.95;;;;;;;1.27;74.34;101345.81;5104700;28;20094;-81
2022/03/24 03:15:10;;;;;;;25.13;15.40;;;;;;;1.30;74.54;101342.69;5093343;28;20039;-81
2022/03/24 03:17:36;;;;;;;25.42;15.38;;;;;;;1.25;74.10;101347.06;5103720;28;20040;-80
2022/03/24 03:20:03;;;;;;;28.83;15.25;;;;;;;1.04;74.02;101345.28;5093851;28;20510;-81
2022/03/24 03:22:29;;;;;;;28.92;15.73;;;;;;;0.80;74.43;101339.34;5079732;28;20032;-80
2022/03/24 03:24:55;;;;;;;26.27;15.02;;;;;;;0.81;74.99;101340.19;5095789;28;20047;-83
2022/03/24 03:27:21;;;;;;;24.15;14.50;;;;;;;0.82;75.39;101336.47;5102947;28;20043;-81
2022/03/24 03:29:47;;;;;;;22.52;13.40;;;;;;;0.76;75.26;101338.09;5111685;28;20046;-81
2022/03/24 03:32:13;;;;;;;25.65;14.68;;;;;;;0.62;75.18;101340.91;5104208;28;20097;-80
2022/03/24 03:34:40;;;;;;;23.65;13.40;;;;;;;0.52;76.08;101333.16;5094753;28;20036;-81
2022/03/24 03:37:06;;;;;;;23.38;14.05;;;;;;;0.59;76.19;101331.34;5093992;28;20047;-81
2022/03/24 03:39:32;;;;;;;28.80;15.10;;;;;;;0.60;76.07;101327.63;5102180;28;20040;-81
2022/03/24 03:41:57;;;;;;;27.38;15.55;;;;;;;0.69;76.15;101315.59;5094668;28;20098;-81
2022/03/24 03:44:23;;;;;;;26.42;14.10;;;;;;;0.69;76.10;101320.16;5108107;28;20063;-81
2022/03/24 03:46:50;;;;;;;23.13;14.23;;;;;;;0.62;76.20;101324.72;5094032;28;20096;-81
2022/03/24 03:49:16;;;;;;;28.50;13.75;;;;;;;0.40;75.83;101327.50;5096161;28;20046;-82
2022/03/24 03:51:42;;;;;;;24.60;14.15;;;;;;;0.35;76.43;101324.56;5113818;28;20039;-82
2022/03/24 03:54:13;;;;;;;26.45;14.70;;;;;;;0.35;76.16;101315.59;5078535;28;20042;-81
2022/03/24 03:57:04;;;;;;;27.63;14.10;;;;;;;0.30;76.87;101316.19;5096053;28;20028;-82
2022/03/24 03:59:30;;;;;;;25.70;14.15;;;;;;;0.37;76.43;101313.56;5102181;28;20039;-82
2022/03/24 04:01:57;;;;;;;26.58;13.15;;;;;;;0.45;76.78;101308.81;5113362;28;20413;-82
2022/03/24 04:04:23;;;;;;;25.92;13.65;;;;;;;0.25;76.89;101308.69;5116962;27;20042;-82
2022/03/24 04:06:49;;;;;;;23.42;12.48;;;;;;;0.26;76.87;101296.03;5119627;27;20095;-82
2022/03/24 04:09:15;;;;;;;21.05;11.40;;;;;;;0.42;76.93;101290.34;5087548;28;20433;-81
2022/03/24 04:11:40;;;;;;;21.55;12.30;;;;;;;0.27;76.85;101292.31;5094551;28;20043;-82
2022/03/24 04:14:07;;;;;;;20.85;11.85;;;;;;;0.32;77.07;101287.13;5112963;28;20047;-81
2022/03/24 04:16:32;;;;;;;21.35;12.35;;;;;;;0.41;77.19;101285.97;5113447;28;20050;-82
2022/03/24 04:18:58;;;;;;;18.58;11.40;;;;;;;0.47;77.08;101292.44;5112411;28;20047;-82
2022/03/24 04:21:24;;;;;;;21.10;13.80;;;;;;;0.68;76.52;101288.78;5112768;28;20047;-79
2022/03/24 04:23:49;;;;;;;20.73;11.85;;;;;;;1.21;76.78;101287.13;5093891;28;20138;-83
2022/03/24 04:26:15;;;;;;;19.02;12.00;;;;;;;1.62;75.31;101283.47;5092676;28;20046;-82
2022/03/24 04:28:43;;;;;;;21.90;12.80;;;;;;;2.05;74.11;101289.31;5094850;28;20081;-83
2022/03/24 04:31:09;;;;;;;21.23;12.73;;;;;;;2.50;71.92;101284.03;5107682;28;20141;-82
2022/03/24 04:33:35;;;;;;;23.73;13.10;;;;;;;2.79;71.43;101275.41;5099844;28;20481;-82
2022/03/24 04:36:01;;;;;;;21.25;12.40;;;;;;;3.19;69.49;101288.78;5092482;28;20055;-82
2022/03/24 04:38:27;;;;;;;19.75;11.52;;;;;;;3.33;68.23;101283.06;5110224;28;20039;-80
2022/03/24 04:40:56;;;;;;;19.25;11.88;;;;;;;3.52;66.75;101272.31;5112478;28;20071;-81
2022/03/24 04:43:21;;;;;;;21.20;12.53;;;;;;;3.48;67.20;101281.94;5112374;28;20036;-81
2022/03/24 04:45:47;;;;;;;20.85;12.57;;;;;;;3.82;66.43;101289.63;5112306;28;20342;-82
2022/03/24 04:48:13;;;;;;;20.02;12.52;;;;;;;4.23;65.28;101278.19;5089252;28;20118;-81
2022/03/24 04:50:39;;;;;;;19.10;11.68;;;;;;;4.62;64.27;101280.72;5132211;27;20447;-81
2022/03/24 04:53:05;;;;;;;22.17;12.93;;;;;;;4.99;63.05;101289.69;5099334;27;20074;-81
2022/03/24 04:55:31;;;;;;;23.00;13.38;;;;;;;5.23;61.15;101291.50;5092009;28;20043;-82
2022/03/24 04:57:57;;;;;;;24.25;11.32;;;;;;;5.44;60.71;101287.44;5071331;28;20040;-81
2022/03/24 05:00:22;;;;;;;19.33;11.30;;;;;;;5.73;59.82;101283.84;5099344;28;20081;-82
2022/03/24 05:02:48;;;;;;;18.83;12.02;;;;;;;6.02;58.32;101289.47;5109846;28;20391;-83
2022/03/24 05:05:15;;;;;;;20.70;12.57;;;;;;;5.91;57.82;101282.16;5104706;28;20091;-81
2022/03/24 05:07:41;;;;;;;17.38;11.15;;;;;;;6.09;58.11;101273.03;5100050;28;20043;-82
2022/03/24 05:10:08;;;;;;;20.38;11.30;;;;;;;6.51;56.82;101263.66;5083302;28;20036;-82
2022/03/24 05:12:34;;;;;;;18.88;11.93;;;;;;;6.66;56.13;101276.78;5095325;28;20036;-81
2022/03/24 05:14:59;;;;;;;18.45;10.45;;;;;;;6.93;55.96;101271.63;5105972;28;20063;-81
2022/03/24 05:17:25;;;;;;;18.02;10.98;;;;;;;7.28;54.59;101274.22;5091402;28;20044;-81
2022/03/24 05:19:52;;;;;;;16.08;10.45;;;;;;;7.41;52.97;101264.94;5091866;28;20088;-81
2022/03/24 05:22:18;;;;;;;18.65;11.45;;;;;;;7.44;53.34;101265.25;5091480;28;20388;-82
2022/03/24 05:24:43;;;;;;;24.83;11.35;;;;;;;7.80;52.55;101257.69;5097716;28;20047;-82
2022/03/24 05:27:10;;;;;;;18.92;11.43;;;;;;;8.01;51.51;101258.88;5093306;28;20040;-81
2022/03/24 05:29:36;;;;;;;21.35;11.75;;;;;;;7.92;52.13;101258.44;5092735;28;20032;-81
2022/03/24 05:32:04;;;;;;;19.88;11.57;;;;;;;8.25;50.61;101264.97;5059325;28;20150;-81
2022/03/24 05:34:31;;;;;;;18.10;11.82;;;;;;;8.25;50.37;101257.59;5075300;28;20039;-81
2022/03/24 05:36:56;;;;;;;19.27;12.25;;;;;;;8.22;50.83;101254.53;5074937;28;20036;-80
2022/03/24 05:39:22;;;;;;;18.75;11.32;;;;;;;8.51;49.70;101249.81;5092063;28;20541;-82
2022/03/24 05:41:47;;;;;;;15.27;10.18;;;;;;;8.61;49.73;101245.28;5105459;28;20039;-81
2022/03/24 05:44:13;;;;;;;16.55;10.98;;;;;;;8.67;49.32;101248.91;5111220;28;20058;-82
2022/03/24 05:46:41;;;;;;;16.88;10.10;;;;;;;8.72;49.85;101243.53;5089877;28;20413;-81
2022/03/24 05:49:08;;;;;;;16.52;10.60;;;;;;;8.67;48.95;101240.69;5094480;28;20040;-82
2022/03/24 05:51:53;;;;;;;15.32;10.65;;;;;;;9.12;48.54;101234.97;5072946;28;20071;-83
2022/03/24 05:54:19;;;;;;;16.42;10.95;;;;;;;9.40;48.90;101242.13;5104925;28;20123;-82
2022/03/24 05:56:45;;;;;;;14.38;10.55;;;;;;;9.76;47.28;101235.06;5086564;28;20054;-82
2022/03/24 05:59:11;;;;;;;17.27;10.68;;;;;;;9.51;47.20;101237.56;5105640;28;20039;-82
2022/03/24 06:01:39;;;;;;;14.32;9.43;;;;;;;8.86;48.11;101228.38;5093273;28;20031;-81
2022/03/24 06:04:05;;;;;;;15.53;9.63;;;;;;;8.30;50.83;101224.03;5105991;28;20032;-81
2022/03/24 06:06:34;;;;;;;14.90;9.27;;;;;;;8.35;50.65;101229.63;5081948;28;20089;-81
2022/03/24 06:09:02;;;;;;;17.42;9.77;;;;;;;8.06;51.21;101232.44;5084601;28;20031;-81
2022/03/24 06:11:27;;;;;;;15.23;8.77;;;;;;;7.86;53.20;101227.50;5090960;28;20093;-80
2022/03/24 06:13:53;;;;;;;14.43;8.93;;;;;;;7.93;52.97;101215.56;5096848;28;20066;-81
2022/03/24 06:16:19;;;;;;;14.63;9.18;;;;;;;8.32;52.65;101222.69;5078678;28;20494;-82
2022/03/24 06:18:45;;;;;;;13.05;8.40;;;;;;;8.85;50.58;101212.19;5090940;28;20047;-82
2022/03/24 06:21:10;;;;;;;12.85;8.65;;;;;;;8.78;50.68;101215.13;5090617;28;20032;-82
2022/03/24 06:23:36;;;;;;;13.13;8.40;;;;;;;8.77;49.96;101210.75;5090631;28;20051;-83
2022/03/24 06:26:02;;;;;;;12.88;8.25;;;;;;;8.43;50.60;101208.13;5099913;28;20401;-82
2022/03/24 06:28:27;;;;;;;12.48;8.02;;;;;;;7.97;51.16;101220.25;5072398;28;20028;-82
2022/03/24 06:30:53;;;;;;;11.75;8.38;;;;;;;7.41;52.12;101216.59;5090486;28;20043;-81
2022/03/24 06:33:19;;;;;;;12.40;8.02;;;;;;;6.77;53.95;101224.13;5090701;28;20036;-82
2022/03/24 06:35:46;;;;;;;12.60;7.97;;;;;;;6.43;54.53;101220.41;5090650;28;20048;-81
2022/03/24 06:38:12;;;;;;;11.18;7.72;;;;;;;6.13;55.42;101220.56;5091598;28;20039;-80
2022/03/24 06:40:38;;;;;;;11.80;8.02;;;;;;;5.95;57.19;101217.94;5090486;28;20445;-82
2022/03/24 06:43:06;;;;;;;12.65;7.90;;;;;;;5.80;57.26;101209.38;5112594;28;20409;-80
2022/03/24 06:45:32;;;;;;;13.13;8.02;;;;;;;5.57;58.09;101208.28;5114705;28;20451;-80
2022/03/24 06:47:57;;;;;;;11.43;7.88;;;;;;;5.40;58.91;101210.88;5113904;28;20134;-81
2022/03/24 06:50:23;;;;;;;12.23;8.25;;;;;;;5.53;58.93;101200.81;5094921;28;20119;-82
2022/03/24 06:52:49;;;;;;;15.40;9.07;;;;;;;5.69;58.47;101200.13;5094514;28;20067;-82
2022/03/24 06:55:14;;;;;;;14.00;8.27;;;;;;;5.85;58.08;101193.97;5094053;28;20032;-82
2022/03/24 06:57:41;;;;;;;12.32;7.95;;;;;;;6.16;57.60;101192.81;5099543;28;20043;-81
2022/03/24 07:00:07;;;;;;;12.45;8.15;;;;;;;5.83;57.77;101195.28;5063333;28;20032;-82
2022/03/24 07:02:33;;;;;;;12.38;7.97;;;;;;;6.18;58.58;101192.59;5093547;28;20489;-82
2022/03/24 07:04:58;;;;;;;11.90;7.88;;;;;;;6.68;57.29;101192.84;5075915;28;20048;-81
2022/03/24 07:07:26;;;;;;;11.10;7.35;;;;;;;6.72;55.53;101194.00;5094287;28;20067;-83
2022/03/24 07:09:52;;;;;;;14.10;6.78;;;;;;;6.03;56.99;101193.88;5076086;28;20047;-82
2022/03/24 07:12:23;;;;;;;11.95;7.43;;;;;;;5.85;57.92;101198.59;5093778;28;20123;-81
2022/03/24 07:14:48;;;;;;;7.38;5.82;;;;;;;6.70;57.09;101190.69;5094234;28;20131;-81
2022/03/24 07:17:15;;;;;;;10.25;6.50;;;;;;;7.41;54.70;101183.84;5093816;28;20126;-82
2022/03/24 07:19:41;;;;;;;11.30;6.72;;;;;;;7.59;54.47;101181.94;5094609;28;20043;-83
2022/03/24 07:22:07;;;;;;;9.90;6.60;;;;;;;7.60;53.67;101181.69;5109858;28;20126;-84
2022/03/24 07:24:33;;;;;;;14.68;7.07;;;;;;;7.52;54.25;101187.59;5114073;28;20134;-84
2022/03/24 07:26:58;;;;;;;12.25;6.85;;;;;;;7.27;54.27;101179.75;5110785;28;20067;-83
2022/03/24 07:29:24;;;;;;;11.57;7.55;;;;;;;7.11;54.60;101181.38;5092715;27;20067;-82
2022/03/24 07:31:50;;;;;;;12.48;7.00;;;;;;;7.29;54.32;101177.66;5109152;28;20043;-84
2022/03/24 07:34:17;;;;;;;9.68;6.55;;;;;;;8.12;53.67;101170.47;5086119;28;20034;-82
2022/03/24 07:36:43;;;;;;;12.40;6.70;;;;;;;8.95;52.69;101163.06;5088718;28;20497;-82
2022/03/24 07:39:09;;;;;;;11.63;6.78;;;;;;;10.06;49.03;101168.63;5063580;28;20090;-83
2022/03/24 07:41:36;;;;;;;8.05;6.10;;;;;;;10.80;47.45;101157.50;5093503;28;20036;-82
2022/03/24 07:44:01;;;;;;;9.30;6.13;;;;;;;11.47;46.64;101164.78;5099892;28;20698;-83
2022/03/24 07:46:27;;;;;;;9.95;6.35;;;;;;;11.60;46.07;101174.38;5095880;28;20075;-82
2022/03/24 07:48:53;;;;;;;10.50;5.45;;;;;;;11.80;44.47;101164.50;5096738;28;20484;-84
2022/03/24 07:51:19;;;;;;;9.20;6.07;;;;;;;11.69;44.33;101171.91;5075338;28;20080;-79
2022/03/24 07:53:48;;;;;;;10.20;5.57;;;;;;;11.90;44.72;101165.31;5094029;28;20032;-80
2022/03/24 07:56:14;;;;;;;11.32;5.53;;;;;;;12.27;43.55;101164.97;5101904;28;20067;-80
2022/03/24 07:58:40;;;;;;;9.60;5.82;;;;;;;12.81;42.77;101161.44;5113917;28;20044;-82
2022/03/24 08:01:06;;;;;;;10.77;6.18;;;;;;;12.83;43.07;101161.97;5095237;28;20515;-79
2022/03/24 08:03:32;;;;;;;9.18;5.70;;;;;;;12.66;42.48;101161.50;5084584;28;20549;-83
2022/03/24 08:05:58;;;;;;;10.27;5.63;;;;;;;12.52;43.04;101168.75;5085114;28;20118;-81
2022/03/24 08:08:24;;;;;;;7.07;5.60;;;;;;;12.83;42.88;101156.47;5106872;28;20074;-85
2022/03/24 08:10:51;;;;;;;7.38;6.03;;;;;;;12.84;42.00;101146.28;5112998;28;20448;-85
2022/03/24 08:13:18;;;;;;;10.30;5.78;;;;;;;12.74;42.97;101149.09;5093231;28;20040;-85
2022/03/24 08:15:44;;;;;;;10.68;6.93;;;;;;;12.89;41.98;101160.03;5102292;28;20039;-80
2022/03/24 08:18:11;;;;;;;10.65;6.30;;;;;;;12.72;42.44;101160.41;5093951;28;20041;-79
2022/03/24 08:20:38;;;;;;;11.95;6.20;;;;;;;13.09;41.75;101165.44;5083886;27;20040;-79
2022/03/24 08:23:04;;;;;;;7.80;5.72;;;;;;;13.28;41.34;101163.66;5099664;27;20078;-79
2022/03/24 08:25:30;;;;;;;9.57;6.10;;;;;;;13.00;41.87;101150.59;5093180;28;20557;-80
2022/03/24 08:27:56;;;;;;;10.82;5.78;;;;;;;13.25;41.92;101146.91;5074878;28;20460;-84
2022/03/24 08:30:23;;;;;;;11.98;5.72;;;;;;;13.06;41.71;101151.41;5097029;28;20500;-80
2022/03/24 08:32:48;;;;;;;12.35;5.82;;;;;;;13.14;41.67;101157.13;5104988;28;20039;-84
2022/03/24 08:35:14;;;;;;;10.75;6.53;;;;;;;13.06;41.56;101156.91;5100316;28;20064;-82
2022/03/24 08:37:40;;;;;;;9.98;5.68;;;;;;;12.77;42.18;101152.09;5083660;28;20067;-86
2022/03/24 08:40:06;;;;;;;9.30;6.20;;;;;;;12.40;42.42;101147.03;5076627;28;20043;-85
2022/03/24 08:42:35;;;;;;;9.20;6.50;;;;;;;12.47;42.89;101150.31;5111946;28;20446;-85
2022/03/24 08:45:01;;;;;;;11.20;6.55;;;;;;;11.97;42.52;101157.59;5112682;28;20035;-86
2022/03/24 08:47:26;;;;;;;9.82;6.50;;;;;;;11.80;43.83;101159.00;5112416;28;20042;-86
2022/03/24 08:49:52;;;;;;;8.93;6.15;;;;;;;12.00;43.97;101162.56;5094131;28;20123;-86
2022/03/24 08:52:21;;;;;;;9.20;5.68;;;;;;;12.63;42.03;101162.09;5112440;28;20458;-85
2022/03/24 08:54:47;;;;;;;11.70;7.22;;;;;;;12.52;42.72;101158.56;5112315;28;20043;-86
2022/03/24 08:57:13;;;;;;;8.98;6.28;;;;;;;12.22;42.83;101166.91;5095557;28;20524;-84
2022/03/24 08:59:38;;;;;;;8.18;5.72;;;;;;;11.68;43.85;101168.34;5073163;28;20044;-85
2022/03/24 09:02:04;;;;;;;12.98;6.47;;;;;;;11.23;44.32;101149.06;5092084;28;20047;-86
2022/03/24 09:04:30;;;;;;;6.95;5.93;;;;;;;11.22;44.50;101155.66;5092385;28;20051;-86
2022/03/24 09:06:56;;;;;;;10.70;7.20;;;;;;;11.24;44.71;101154.28;5095977;28;20039;-85
2022/03/24 09:09:22;;;;;;;9.93;6.47;;;;;;;10.71;46.15;101152.81;5091813;28;20104;-85
2022/03/24 09:11:51;;;;;;;12.57;7.32;;;;;;;10.20;47.05;101158.84;5091722;28;20044;-85
2022/03/24 09:14:17;;;;;;;11.85;6.15;;;;;;;9.72;47.87;101161.81;5091992;28;20047;-86
2022/03/24 09:16:43;;;;;;;10.80;6.57;;;;;;;8.94;49.34;101162.22;5095411;28;20039;-84
2022/03/24 09:19:10;;;;;;;9.05;5.45;;;;;;;8.32;51.31;101142.56;5073783;28;20511;-85
2022/03/24 09:21:36;;;;;;;11.80;6.43;;;;;;;7.72;52.91;101141.47;5092114;28;20044;-85
2022/03/24 09:24:02;;;;;;;9.75;5.65;;;;;;;7.12;54.29;101144.88;5095069;28;20052;-85
2022/03/24 09:26:27;;;;;;;8.50;4.68;;;;;;;7.01;55.45;101142.19;5092002;28;20073;-86
2022/03/24 09:28:53;;;;;;;10.40;5.70;;;;;;;6.77;56.77;101145.03;5091494;28;20069;-86
2022/03/24 09:31:19;;;;;;;8.55;6.32;;;;;;;6.72;56.50;101141.38;5091210;28;20565;-84
2022/03/24 09:33:46;;;;;;;9.65;5.63;;;;;;;6.74;57.41;101158.31;5073129;28;20441;-86
2022/03/24 09:36:12;;;;;;;9.07;6.03;;;;;;;6.69;57.35;101167.22;5094527;28;20032;-85
2022/03/24 09:38:38;;;;;;;11.23;5.88;;;;;;;6.54;57.48;101153.28;5092853;28;20192;-86
2022/03/24 09:41:06;;;;;;;13.48;6.13;;;;;;;6.20;59.23;101155.84;5101712;28;20134;-85
2022/03/24 09:43:36;;;;;;;12.73;6.55;;;;;;;6.06;59.52;101168.06;5094008;28;20044;-84
2022/03/24 09:46:02;;;;;;;9.35;6.10;;;;;;;6.00;60.41;101171.75;5093385;28;20497;-84
2022/03/24 09:48:28;;;;;;;13.15;7.05;;;;;;;6.02;60.19;101166.88;5111335;28;20050;-84
2022/03/24 09:50:54;;;;;;;8.15;6.00;;;;;;;5.88;60.97;101177.16;5092841;28;20135;-84
2022/03/24 09:53:20;;;;;;;9.88;6.55;;;;;;;5.78;61.30;101171.50;5093565;28;20423;-83
2022/03/24 09:55:47;;;;;;;15.25;7.38;;;;;;;5.77;61.36;101172.56;5111351;28;20498;-84
2022/03/24 09:58:13;;;;;;;11.43;6.90;;;;;;;5.56;61.77;101184.84;5093100;28;20585;-85
2022/03/24 10:00:39;;;;;;;9.23;5.95;;;;;;;5.43;62.31;101174.19;5093295;28;20228;-84
2022/03/24 10:03:08;;;;;;;10.73;6.45;;;;;;;5.30;63.41;101169.78;5093566;28;20035;-85
2022/03/24 10:05:34;;;;;;;13.55;6.38;;;;;;;5.18;63.41;101177.06;5111554;28;20387;-85
2022/03/24 10:08:05;;;;;;;9.13;6.60;;;;;;;5.16;64.18;101184.63;5111284;28;20093;-84
2022/03/24 10:10:35;;;;;;;12.27;6.70;;;;;;;5.08;64.34;101185.81;5111382;28;20035;-84
2022/03/24 10:13:02;;;;;;;13.65;7.20;;;;;;;5.02;64.57;101189.44;5111447;28;20039;-84
2022/03/24 10:15:28;;;;;;;13.25;6.25;;;;;;;4.96;65.06;101184.91;5087198;28;20047;-84
2022/03/24 10:17:56;;;;;;;12.88;6.45;;;;;;;4.98;65.13;101188.25;5094398;28;20130;-85
2022/03/24 10:20:33;;;;;;;11.35;6.80;;;;;;;5.12;65.11;101188.88;5097920;28;20440;-86
2022/03/24 10:23:04;;;;;;;11.95;6.90;;;;;;;5.12;64.77;101187.00;5095109;28;20533;-85
2022/03/24 10:25:37;;;;;;;11.30;6.55;;;;;;;5.10;64.94;101180.97;5094568;28;20036;-86
2022/03/24 10:28:04;;;;;;;9.77;6.55;;;;;;;5.12;64.56;101189.72;5095755;28;20039;-86
2022/03/24 10:30:53;;;;;;;11.43;6.40;;;;;;;5.19;65.00;101188.78;5077215;28;20066;-84
2022/03/24 10:33:27;;;;;;;9.73;5.18;;;;;;;5.23;65.03;101188.09;5077305;28;20040;-86
2022/03/24 10:36:09;;;;;;;9.95;6.10;;;;;;;5.23;64.98;101187.28;5112100;28;20092;-85
2022/03/24 10:38:41;;;;;;;13.65;6.45;;;;;;;5.27;64.95;101183.00;5093479;28;20172;-84
2022/03/24 10:41:19;;;;;;;8.65;5.95;;;;;;;5.28;65.14;101184.69;5110092;28;20516;-85
2022/03/24 10:43:46;;;;;;;11.73;6.47;;;;;;;5.23;64.72;101179.09;5115365;28;20031;-85
2022/03/24 10:46:26;;;;;;;10.88;6.20;;;;;;;5.26;65.14;101192.25;5115233;28;20035;-85
2022/03/24 10:48:52;;;;;;;11.43;6.72;;;;;;;5.26;65.13;101189.53;5097226;28;20084;-86
2022/03/24 10:51:31;;;;;;;12.10;6.65;;;;;;;5.08;65.18;101191.25;5098178;28;20513;-86
2022/03/24 10:54:25;;;;;;;7.68;5.50;;;;;;;5.02;65.95;101186.72;5117551;28;20518;-87
2022/03/24 10:57:08;;;;;;;10.18;6.07;;;;;;;5.10;65.79;101196.44;5114829;28;20525;-86
2022/03/24 10:59:38;;;;;;;10.25;5.78;;;;;;;5.15;65.69;101213.72;5101334;28;20083;-84
2022/03/24 11:02:04;;;;;;;11.48;6.55;;;;;;;5.12;66.02;101203.31;5094385;28;20089;-86
2022/03/24 11:04:30;;;;;;;12.82;6.60;;;;;;;5.07;65.86;101205.06;5094745;28;20093;-86
2022/03/24 11:06:56;;;;;;;12.88;7.10;;;;;;;5.11;66.07;101207.09;5094505;28;20032;-84
2022/03/24 11:09:32;;;;;;;13.15;6.63;;;;;;;5.13;66.12;101210.41;5099414;28;20096;-85
2022/03/24 11:12:29;;;;;;;15.30;6.68;;;;;;;5.05;66.15;101204.47;5075701;28;20550;-85
2022/03/24 11:14:57;;;;;;;10.90;6.38;;;;;;;5.02;66.03;101185.88;5075979;28;20040;-86
2022/03/24 11:17:24;;;;;;;11.47;6.77;;;;;;;4.94;66.28;101197.94;5094014;28;20054;-86
2022/03/24 11:20:13;;;;;;;10.98;7.00;;;;;;;4.97;66.72;101202.91;5093902;28;20498;-86
2022/03/24 11:22:39;;;;;;;14.40;6.88;;;;;;;4.85;67.02;101204.72;5088747;28;20585;-86